createdAt,value
2023-03-24T00:01:06.937Z,5.00
2023-03-24T00:03:33.631Z,3.65
2023-03-24T00:06:03.164Z,3.33
2023-03-24T00:08:31.782Z,6.15
2023-03-24T00:11:01.635Z,4.20
2023-03-24T00:13:29.341Z,4.80
2023-03-24T00:15:56.631Z,5.22
2023-03-24T00:18:25.889Z,4.00
2023-03-24T00:20:58.673Z,5.50
2023-03-24T00:23:27.878Z,5.83
2023-03-24T00:26:04.952Z,3.47
2023-03-24T00:28:33.315Z,4.45
2023-03-24T00:31:02.191Z,5.22
2023-03-24T00:33:34.869Z,4.40
2023-03-24T00:36:07.011Z,5.68
2023-03-24T00:38:34.804Z,3.65
2023-03-24T00:41:02.368Z,4.03
2023-03-24T00:43:29.656Z,6.22
2023-03-24T00:46:05.974Z,2.97
2023-03-24T00:48:33.002Z,6.68
2023-03-24T00:51:02.937Z,6.85
2023-03-24T00:53:29.729Z,3.97
2023-03-24T00:55:58.405Z,3.60
2023-03-24T00:58:25.459Z,4.20
2023-03-24T01:00:56.959Z,3.38
2023-03-24T01:03:27.693Z,4.30
2023-03-24T01:05:57.786Z,4.15
2023-03-24T01:08:25.648Z,3.58
2023-03-24T01:10:54.282Z,2.35
2023-03-24T01:13:23.687Z,4.18
2023-03-24T01:15:51.202Z,5.18
2023-03-24T01:18:18.450Z,5.13
2023-03-24T01:20:47.141Z,5.10
2023-03-24T01:23:16.386Z,2.75
2023-03-24T01:25:45.903Z,4.03
2023-03-24T01:28:13.452Z,4.85
2023-03-24T01:30:40.512Z,3.35
2023-03-24T01:33:07.942Z,4.00
2023-03-24T01:35:35.348Z,2.60
2023-03-24T01:38:06.454Z,3.05
2023-03-24T01:40:34.774Z,3.35
2023-03-24T01:43:01.412Z,2.65
2023-03-24T01:45:42.562Z,2.08
2023-03-24T01:48:18.808Z,4.05
2023-03-24T01:51:04.594Z,2.47
2023-03-24T01:53:34.018Z,3.03
2023-03-24T01:56:02.765Z,2.88
2023-03-24T01:58:32.384Z,3.30
2023-03-24T02:00:59.156Z,3.47
2023-03-24T02:03:29.994Z,2.70
2023-03-24T02:05:57.698Z,4.13
2023-03-24T02:08:48.218Z,3.47
2023-03-24T02:11:14.877Z,2.35
2023-03-24T02:13:41.482Z,4.07
2023-03-24T02:16:26.018Z,6.10
2023-03-24T02:19:14.803Z,3.42
2023-03-24T02:21:59.699Z,2.47
2023-03-24T02:25:04.394Z,2.88
2023-03-24T02:27:52.329Z,2.80
2023-03-24T02:31:19.745Z,1.67
2023-03-24T02:33:52.290Z,2.92
2023-03-24T02:36:21.749Z,2.38
2023-03-24T02:39:25.810Z,3.33
2023-03-24T02:42:31.200Z,2.90
2023-03-24T02:45:35.271Z,3.78
2023-03-24T02:48:20.616Z,2.67
2023-03-24T02:51:08.507Z,3.90
2023-03-24T02:54:23.135Z,3.00
2023-03-24T02:56:58.392Z,2.17
2023-03-24T02:59:44.925Z,2.92
2023-03-24T03:02:20.290Z,2.90
2023-03-24T03:04:52.699Z,3.17
2023-03-24T03:07:25.053Z,3.17
2023-03-24T03:09:59.958Z,3.65
2023-03-24T03:12:31.681Z,3.33
2023-03-24T03:15:03.614Z,4.30
2023-03-24T03:17:35.647Z,3.45
2023-03-24T03:20:11.249Z,3.15
2023-03-24T03:22:45.339Z,2.22
2023-03-24T03:25:16.639Z,3.85
2023-03-24T03:27:46.957Z,2.53
2023-03-24T03:30:22.330Z,1.90
2023-03-24T03:32:55.427Z,3.35
2023-03-24T03:35:51.017Z,4.78
2023-03-24T03:38:26.325Z,3.80
2023-03-24T03:41:00.218Z,2.53
2023-03-24T03:43:28.425Z,3.95
2023-03-24T03:45:55.709Z,2.97
2023-03-24T03:48:26.373Z,2.47
2023-03-24T03:51:06.275Z,1.90
2023-03-24T03:53:51.456Z,3.58
2023-03-24T03:56:20.648Z,2.85
2023-03-24T03:58:47.294Z,4.03
2023-03-24T04:01:18.664Z,3.55
2023-03-24T04:04:06.549Z,3.50
2023-03-24T04:06:36.100Z,4.22
2023-03-24T04:09:28.615Z,3.60
2023-03-24T04:12:02.699Z,3.22
2023-03-24T04:14:46.039Z,4.82
2023-03-24T04:17:46.507Z,4.90
2023-03-24T04:20:24.244Z,4.80
2023-03-24T04:23:26.400Z,4.55
2023-03-24T04:26:34.336Z,2.92
2023-03-24T04:29:09.968Z,2.97
2023-03-24T04:31:49.171Z,3.35
2023-03-24T04:34:22.056Z,3.70
2023-03-24T04:36:54.576Z,3.77
2023-03-24T04:39:28.147Z,4.85
2023-03-24T04:41:57.840Z,5.13
2023-03-24T04:44:26.498Z,3.65
2023-03-24T04:46:57.688Z,4.40
2023-03-24T04:49:25.426Z,5.72
2023-03-24T04:51:52.513Z,2.58
2023-03-24T04:54:20.491Z,4.43
2023-03-24T04:56:50.912Z,4.07
2023-03-24T04:59:18.495Z,3.88
2023-03-24T05:01:51.724Z,4.00
2023-03-24T05:04:28.157Z,4.22
2023-03-24T05:06:55.100Z,5.47
2023-03-24T05:09:23.663Z,4.30
2023-03-24T05:11:50.718Z,5.05
2023-03-24T05:14:17.249Z,6.93
2023-03-24T05:16:43.888Z,6.80
2023-03-24T05:19:11.082Z,3.85
2023-03-24T05:21:37.733Z,5.00
2023-03-24T05:24:04.674Z,5.20
2023-03-24T05:26:33.125Z,3.58
2023-03-24T05:29:00.347Z,6.13
2023-03-24T05:31:27.196Z,4.82
2023-03-24T05:33:53.963Z,4.47
2023-03-24T05:36:20.514Z,7.40
2023-03-24T05:38:47.130Z,5.95
2023-03-24T05:41:13.729Z,6.53
2023-03-24T05:43:40.286Z,7.63
2023-03-24T05:46:07.131Z,4.05
2023-03-24T05:48:33.695Z,5.43
2023-03-24T05:51:00.274Z,7.43
2023-03-24T05:53:26.813Z,7.07
2023-03-24T05:55:53.686Z,7.63
2023-03-24T05:58:21.464Z,6.57
2023-03-24T06:00:48.389Z,6.68
2023-03-24T06:03:17.272Z,5.68
2023-03-24T06:05:45.775Z,6.03
2023-03-24T06:08:12.699Z,5.68
2023-03-24T06:10:40.661Z,7.03
2023-03-24T06:13:09.126Z,11.50
2023-03-24T06:15:36.255Z,7.03
2023-03-24T06:18:05.389Z,8.70
2023-03-24T06:20:32.293Z,11.10
2023-03-24T06:22:59.906Z,6.63
2023-03-24T06:25:28.576Z,9.80
2023-03-24T06:27:55.288Z,7.38
2023-03-24T06:30:21.824Z,7.45
2023-03-24T06:32:48.713Z,9.25
2023-03-24T06:35:17.057Z,10.27
2023-03-24T06:37:44.716Z,6.40
2023-03-24T06:40:15.987Z,9.38
2023-03-24T06:42:42.648Z,7.07
2023-03-24T06:45:10.033Z,9.48
2023-03-24T06:47:37.273Z,12.65
2023-03-24T06:50:05.594Z,8.10
2023-03-24T06:52:32.224Z,9.32
2023-03-24T06:54:58.952Z,9.77
2023-03-24T06:57:26.023Z,8.50
2023-03-24T06:59:53.346Z,8.45
2023-03-24T07:02:19.926Z,12.57
2023-03-24T07:04:46.505Z,8.00
2023-03-24T07:07:52.800Z,8.02
2023-03-24T07:09:59.814Z,8.32
2023-03-24T07:12:26.406Z,10.45
2023-03-24T07:14:52.936Z,10.38
2023-03-24T07:17:19.410Z,8.43
2023-03-24T07:19:45.990Z,11.65
2023-03-24T07:22:12.515Z,9.45
2023-03-24T07:24:39.028Z,8.52
2023-03-24T07:27:06.745Z,11.60
2023-03-24T07:29:33.247Z,8.15
2023-03-24T07:32:00.998Z,7.95
2023-03-24T07:34:28.608Z,11.82
2023-03-24T07:36:56.081Z,14.70
2023-03-24T07:39:22.629Z,11.52
2023-03-24T07:41:49.184Z,8.98
2023-03-24T07:44:15.904Z,9.20
2023-03-24T07:46:42.558Z,11.52
2023-03-24T07:49:18.975Z,8.82
2023-03-24T07:51:46.540Z,7.60
2023-03-24T07:54:13.272Z,14.15
2023-03-24T07:56:39.825Z,8.13
2023-03-24T07:59:06.518Z,9.00
2023-03-24T08:01:33.118Z,9.20
2023-03-24T08:03:59.989Z,9.98
2023-03-24T08:06:26.789Z,9.55
2023-03-24T08:08:53.303Z,11.02
2023-03-24T08:11:19.811Z,9.35
2023-03-24T08:13:46.401Z,8.93
2023-03-24T08:16:12.986Z,9.90
2023-03-24T08:18:39.581Z,10.88
2023-03-24T08:21:06.582Z,10.07
2023-03-24T08:23:33.336Z,8.35
2023-03-24T08:25:59.866Z,9.60
2023-03-24T08:28:26.425Z,11.25
2023-03-24T08:30:53.106Z,9.00
2023-03-24T08:33:19.698Z,8.20
2023-03-24T08:35:46.820Z,11.10
2023-03-24T08:38:18.116Z,8.30
2023-03-24T08:40:45.485Z,8.70
2023-03-24T08:43:15.314Z,9.85
2023-03-24T08:45:41.871Z,7.45
2023-03-24T08:48:09.117Z,8.07
2023-03-24T08:50:39.230Z,7.57
2023-03-24T08:53:06.170Z,7.97
2023-03-24T08:55:32.754Z,8.07
2023-03-24T08:57:59.747Z,10.00
2023-03-24T09:00:29.071Z,8.70
2023-03-24T09:02:56.582Z,9.30
2023-03-24T09:05:40.998Z,7.35
2023-03-24T09:08:12.412Z,7.72
2023-03-24T09:10:39.770Z,10.35
2023-03-24T09:13:06.368Z,7.70
2023-03-24T09:15:33.740Z,8.85
2023-03-24T09:18:00.900Z,5.90
2023-03-24T09:20:27.556Z,5.88
2023-03-24T09:22:54.195Z,9.75
2023-03-24T09:25:21.514Z,7.97
2023-03-24T09:27:48.397Z,6.75
2023-03-24T09:30:17.524Z,7.35
2023-03-24T09:32:45.470Z,5.78
2023-03-24T09:35:12.078Z,10.40
2023-03-24T09:37:39.364Z,6.10
2023-03-24T09:40:07.805Z,5.50
2023-03-24T09:42:38.662Z,6.20
2023-03-24T09:45:13.533Z,9.05
2023-03-24T09:47:51.211Z,7.72
2023-03-24T09:50:22.820Z,5.32
2023-03-24T09:52:54.780Z,7.43
2023-03-24T09:55:25.388Z,6.20
2023-03-24T09:57:53.779Z,5.70
2023-03-24T10:00:30.528Z,7.55
2023-03-24T10:03:01.865Z,8.98
2023-03-24T10:05:47.367Z,5.15
2023-03-24T10:08:33.577Z,6.57
2023-03-24T10:11:11.306Z,6.80
2023-03-24T10:14:04.365Z,6.22
2023-03-24T10:16:38.987Z,9.10
2023-03-24T10:19:17.521Z,7.38
2023-03-24T10:22:13.989Z,7.43
2023-03-24T10:25:06.529Z,7.10
2023-03-24T10:27:45.293Z,8.43
2023-03-24T10:30:17.692Z,5.72
2023-03-24T10:32:45.349Z,7.25
2023-03-24T10:35:37.297Z,7.47
2023-03-24T10:38:19.829Z,7.13
2023-03-24T10:40:47.953Z,4.75
2023-03-24T10:43:17.299Z,6.35
2023-03-24T10:45:47.490Z,5.82
2023-03-24T10:48:33.150Z,6.65
2023-03-24T10:50:59.981Z,7.25
2023-03-24T10:53:27.341Z,6.15
2023-03-24T10:55:54.001Z,12.55
2023-03-24T10:58:39.752Z,9.70
2023-03-24T11:01:23.529Z,9.40
2023-03-24T11:03:50.930Z,6.80
2023-03-24T11:06:20.690Z,8.73
2023-03-24T11:08:47.531Z,12.43
2023-03-24T11:11:31.654Z,7.88
2023-03-24T11:14:04.544Z,11.18
2023-03-24T11:16:36.677Z,13.55
2023-03-24T11:19:23.316Z,18.23
2023-03-24T11:21:52.220Z,10.13
2023-03-24T11:24:20.650Z,15.20
2023-03-24T11:27:03.217Z,15.93
2023-03-24T11:29:38.513Z,16.10
2023-03-24T11:32:14.223Z,18.92
2023-03-24T11:34:48.895Z,18.40
2023-03-24T11:37:22.210Z,17.13
2023-03-24T11:40:14.585Z,15.48
2023-03-24T11:42:45.425Z,24.75
2023-03-24T11:45:35.834Z,19.58
2023-03-24T11:48:11.330Z,24.75
2023-03-24T11:50:39.303Z,24.42
2023-03-24T11:53:14.739Z,32.03
2023-03-24T11:55:49.521Z,32.60
2023-03-24T11:58:44.154Z,29.45
2023-03-24T12:01:28.533Z,30.52
2023-03-24T12:04:13.031Z,37.17
2023-03-24T12:06:58.753Z,37.05
2023-03-24T12:09:32.502Z,40.20
2023-03-24T12:15:28.721Z,45.95
2023-03-24T12:18:20.204Z,48.85
2023-03-24T12:20:53.948Z,46.92
2023-03-24T12:23:32.933Z,46.47
2023-03-24T12:26:32.997Z,54.67
2023-03-24T12:29:15.108Z,48.42
2023-03-24T12:32:03.382Z,51.15
2023-03-24T12:34:42.472Z,49.63
2023-03-24T12:37:42.850Z,50.65
2023-03-24T12:40:13.004Z,35.05
2023-03-24T12:42:42.018Z,44.95
2023-03-24T12:45:20.667Z,49.15
2023-03-24T12:48:05.351Z,55.88
2023-03-24T12:50:58.979Z,51.30
2023-03-24T12:53:45.811Z,50.13
2023-03-24T12:56:19.118Z,45.25
2023-03-24T12:58:50.340Z,59.92
2023-03-24T13:01:23.551Z,49.53
2023-03-24T13:04:01.056Z,47.70
2023-03-24T13:06:36.346Z,52.03
2023-03-24T13:09:33.337Z,53.65
2023-03-24T13:12:22.641Z,49.20
2023-03-24T13:15:06.998Z,44.72
2023-03-24T13:17:39.188Z,44.85
2023-03-24T13:20:12.592Z,47.42
2023-03-24T13:22:39.954Z,40.45
2023-03-24T13:25:25.100Z,43.90
2023-03-24T13:27:57.475Z,35.50
2023-03-24T13:30:32.485Z,49.60
2023-03-24T13:33:16.935Z,39.22
2023-03-24T13:36:17.267Z,43.53
2023-03-24T13:38:51.590Z,42.55
2023-03-24T13:41:23.985Z,35.13
2023-03-24T13:43:57.639Z,34.20
2023-03-24T13:48:54.409Z,30.38
2023-03-24T13:51:32.780Z,33.67
2023-03-24T13:54:07.034Z,26.75
2023-03-24T13:56:42.536Z,31.77
2023-03-24T13:59:25.459Z,27.35
2023-03-24T14:02:17.628Z,32.60
2023-03-24T14:04:45.778Z,22.00
2023-03-24T14:07:49.980Z,16.52
2023-03-24T14:10:16.583Z,21.13
2023-03-24T14:13:01.798Z,18.63
2023-03-24T14:15:32.825Z,17.42
2023-03-24T14:18:23.481Z,18.40
2023-03-24T14:20:56.350Z,16.90
2023-03-24T14:23:22.970Z,20.87
2023-03-24T14:25:55.600Z,19.45
2023-03-24T14:28:41.586Z,21.10
2023-03-24T14:31:16.032Z,19.15
2023-03-24T14:34:02.138Z,20.33
2023-03-24T14:36:39.579Z,13.18
2023-03-24T14:39:27.525Z,23.52
2023-03-24T14:41:55.889Z,16.33
2023-03-24T14:44:51.920Z,20.25
2023-03-24T14:47:21.452Z,22.60
2023-03-24T14:49:50.668Z,20.23
2023-03-24T14:52:24.925Z,21.10
2023-03-24T14:55:05.903Z,19.67
2023-03-24T14:57:40.022Z,22.67
2023-03-24T15:00:24.952Z,25.73
2023-03-24T15:03:24.094Z,21.70
2023-03-24T15:05:50.993Z,20.58
2023-03-24T15:08:23.521Z,16.42
2023-03-24T15:11:05.212Z,21.45
2023-03-24T15:13:37.012Z,22.00
2023-03-24T15:16:07.081Z,19.33
2023-03-24T15:18:34.776Z,21.20
2023-03-24T15:21:01.318Z,24.48
2023-03-24T15:23:28.447Z,22.92
2023-03-24T15:25:56.364Z,23.17
2023-03-24T15:28:28.303Z,24.13
2023-03-24T15:30:56.586Z,27.23
2023-03-24T15:33:23.615Z,25.55
2023-03-24T15:35:56.839Z,21.42
2023-03-24T15:38:31.976Z,24.02
2023-03-24T15:41:05.348Z,27.98
2023-03-24T15:43:32.038Z,19.88
2023-03-24T15:46:11.934Z,22.80
2023-03-24T15:48:39.579Z,22.95
2023-03-24T15:51:09.229Z,19.85
2023-03-24T15:53:49.015Z,21.02
2023-03-24T15:56:17.950Z,20.20
2023-03-24T15:58:57.516Z,18.15
2023-03-24T16:01:35.821Z,22.38
2023-03-24T16:04:06.010Z,21.88
2023-03-24T16:06:35.492Z,21.20
2023-03-24T16:09:06.737Z,22.33
2023-03-24T16:11:33.287Z,21.38
2023-03-24T16:14:18.344Z,20.95
2023-03-24T16:16:44.935Z,19.10
2023-03-24T16:19:12.174Z,23.10
2023-03-24T16:21:39.024Z,22.10
2023-03-24T16:24:05.802Z,23.67
2023-03-24T16:26:33.295Z,18.30
2023-03-24T16:29:14.470Z,20.55
2023-03-24T16:31:41.051Z,22.63
2023-03-24T16:34:07.585Z,22.35
2023-03-24T16:36:34.234Z,20.63
2023-03-24T16:39:05.022Z,20.10
2023-03-24T16:41:31.583Z,23.75
2023-03-24T16:43:58.127Z,24.35
2023-03-24T16:46:27.653Z,18.33
2023-03-24T16:48:54.857Z,25.10
2023-03-24T16:51:21.936Z,27.02
2023-03-24T16:53:48.890Z,25.38
2023-03-24T16:56:18.872Z,25.67
2023-03-24T16:58:48.739Z,33.28
2023-03-24T17:01:26.417Z,42.40
2023-03-24T17:03:58.514Z,36.15
2023-03-24T17:06:26.977Z,39.80
2023-03-24T17:08:53.791Z,39.25
2023-03-24T17:11:34.016Z,30.60
2023-03-24T17:14:04.879Z,32.28
2023-03-24T17:16:36.358Z,30.55
2023-03-24T17:19:06.417Z,36.08
2023-03-24T17:21:37.189Z,29.17
2023-03-24T17:24:03.932Z,50.65
2023-03-24T17:26:31.962Z,36.80
2023-03-24T17:28:58.780Z,27.98
2023-03-24T17:31:25.336Z,30.80
2023-03-24T17:33:51.908Z,29.17
2023-03-24T17:36:18.444Z,30.25
2023-03-24T17:38:47.974Z,25.90
2023-03-24T17:41:14.876Z,27.55
2023-03-24T17:43:41.403Z,26.45
2023-03-24T17:46:08.361Z,28.38
2023-03-24T17:48:37.639Z,25.13
2023-03-24T17:51:05.072Z,22.92
2023-03-24T17:53:33.534Z,23.05
2023-03-24T17:56:07.135Z,24.60
2023-03-24T17:58:35.797Z,26.83
2023-03-24T18:01:07.888Z,25.45
2023-03-24T18:03:37.577Z,25.63
2023-03-24T18:06:12.567Z,24.48
2023-03-24T18:08:39.625Z,23.67
2023-03-24T18:11:09.158Z,23.05
2023-03-24T18:13:36.149Z,23.33
2023-03-24T18:16:17.724Z,21.65
2023-03-24T18:18:47.152Z,19.92
2023-03-24T18:21:13.792Z,21.83
2023-03-24T18:23:40.316Z,21.20
2023-03-24T18:26:08.669Z,24.58
2023-03-24T18:28:37.534Z,23.05
2023-03-24T18:31:16.449Z,26.13
2023-03-24T18:33:45.885Z,21.15
2023-03-24T18:36:16.491Z,20.02
2023-03-24T18:38:43.601Z,24.42
2023-03-24T18:41:12.712Z,18.35
2023-03-24T18:43:41.006Z,18.83
2023-03-24T18:46:11.403Z,17.20
2023-03-24T18:48:39.652Z,15.13
2023-03-24T18:51:06.416Z,17.80
2023-03-24T18:53:35.805Z,17.58
2023-03-24T18:56:04.133Z,16.85
2023-03-24T18:58:30.993Z,15.98
2023-03-24T19:00:58.721Z,17.33
2023-03-24T19:03:27.225Z,16.30
2023-03-24T19:05:53.977Z,17.10
2023-03-24T19:08:21.927Z,17.85
2023-03-24T19:10:49.163Z,15.30
2023-03-24T19:13:16.974Z,15.93
2023-03-24T19:15:47.746Z,17.73
2023-03-24T19:18:15.416Z,15.60
2023-03-24T19:20:42.132Z,14.82
2023-03-24T19:23:09.100Z,18.58
2023-03-24T19:25:35.672Z,15.77
2023-03-24T19:28:02.253Z,16.25
2023-03-24T19:30:29.455Z,16.33
2023-03-24T19:32:56.738Z,16.30
2023-03-24T19:35:24.005Z,14.32
2023-03-24T19:37:50.630Z,14.95
2023-03-24T19:40:17.398Z,13.85
2023-03-24T19:42:45.154Z,16.00
2023-03-24T19:45:13.878Z,12.98
2023-03-24T19:47:40.498Z,15.60
2023-03-24T19:50:08.127Z,15.70
2023-03-24T19:52:35.440Z,12.18
2023-03-24T19:55:02.488Z,14.90
2023-03-24T19:57:30.537Z,11.63
2023-03-24T19:59:57.515Z,14.27
2023-03-24T20:02:24.890Z,12.77
2023-03-24T20:04:55.047Z,12.52
2023-03-24T20:07:23.050Z,12.10
2023-03-24T20:09:49.648Z,9.55
2023-03-24T20:12:16.452Z,13.27
2023-03-24T20:14:43.021Z,11.27
2023-03-24T20:17:17.507Z,10.18
2023-03-24T20:19:44.557Z,13.35
2023-03-24T20:22:11.087Z,9.82
2023-03-24T20:24:40.676Z,10.02
2023-03-24T20:27:07.716Z,10.25
2023-03-24T20:29:34.631Z,10.18
2023-03-24T20:32:01.201Z,11.13
2023-03-24T20:34:27.745Z,10.02
2023-03-24T20:36:54.357Z,9.18
2023-03-24T20:39:20.941Z,9.80
2023-03-24T20:41:47.445Z,9.80
2023-03-24T20:44:14.030Z,9.30
2023-03-24T20:46:40.623Z,8.48
2023-03-24T20:49:08.655Z,9.60
2023-03-24T20:51:35.231Z,10.18
2023-03-24T20:54:01.912Z,7.97
2023-03-24T20:56:28.580Z,7.43
2023-03-24T20:58:55.139Z,8.40
2023-03-24T21:01:22.111Z,10.48
2023-03-24T21:03:50.405Z,9.75
2023-03-24T21:06:17.514Z,7.95
2023-03-24T21:08:45.321Z,8.80
2023-03-24T21:11:12.769Z,7.03
2023-03-24T21:13:39.914Z,8.68
2023-03-24T21:16:11.532Z,8.57
2023-03-24T21:18:38.888Z,7.95
2023-03-24T21:21:06.182Z,9.93
2023-03-24T21:23:34.256Z,6.78
2023-03-24T21:26:08.598Z,11.00
2023-03-24T21:28:35.118Z,8.75
2023-03-24T21:31:20.009Z,7.88
2023-03-24T21:33:46.608Z,10.80
2023-03-24T21:36:13.563Z,9.00
2023-03-24T21:38:40.501Z,8.75
2023-03-24T21:41:07.887Z,7.97
2023-03-24T21:43:34.956Z,9.57
2023-03-24T21:46:03.884Z,8.95
2023-03-24T21:48:32.837Z,9.90
2023-03-24T21:51:00.324Z,7.18
2023-03-24T21:53:26.845Z,10.65
2023-03-24T21:55:56.543Z,7.88
2023-03-24T21:58:23.438Z,8.90
2023-03-24T22:00:50.927Z,9.27
2023-03-24T22:03:17.930Z,6.93
2023-03-24T22:05:44.557Z,10.82
2023-03-24T22:08:12.177Z,8.65
2023-03-24T22:10:42.496Z,9.70
2023-03-24T22:13:10.321Z,10.52
2023-03-24T22:15:37.724Z,5.90
2023-03-24T22:18:04.427Z,8.55
2023-03-24T22:20:32.006Z,10.25
2023-03-24T22:22:59.974Z,7.72
2023-03-24T22:25:26.497Z,6.43
2023-03-24T22:27:56.014Z,9.63
2023-03-24T22:30:23.257Z,9.82
2023-03-24T22:32:49.932Z,8.68
2023-03-24T22:35:16.766Z,7.18
2023-03-24T22:37:43.340Z,8.77
2023-03-24T22:40:09.943Z,8.07
2023-03-24T22:42:36.585Z,12.93
2023-03-24T22:45:03.187Z,10.98
2023-03-24T22:47:29.764Z,10.88
2023-03-24T22:49:56.344Z,7.35
2023-03-24T22:52:22.983Z,9.30
2023-03-24T22:54:49.576Z,7.88
2023-03-24T22:57:17.654Z,9.55
2023-03-24T22:59:44.562Z,9.15
2023-03-24T23:02:11.078Z,8.85
2023-03-24T23:04:40.371Z,10.15
2023-03-24T23:07:07.648Z,7.38
2023-03-24T23:09:34.307Z,6.93
2023-03-24T23:12:00.881Z,10.23
2023-03-24T23:14:27.711Z,5.95
2023-03-24T23:16:56.374Z,7.60
2023-03-24T23:19:23.305Z,8.02
2023-03-24T23:21:50.037Z,7.00
2023-03-24T23:24:17.019Z,8.60
2023-03-24T23:26:43.609Z,5.70
2023-03-24T23:29:10.211Z,7.80
2023-03-24T23:31:36.978Z,5.88
2023-03-24T23:34:07.416Z,7.65
2023-03-24T23:36:34.226Z,6.25
2023-03-24T23:39:01.105Z,9.68
2023-03-24T23:41:27.721Z,8.15
2023-03-24T23:43:54.309Z,10.43
2023-03-24T23:46:22.039Z,4.68
2023-03-24T23:48:48.631Z,8.63
2023-03-24T23:51:15.674Z,6.80
2023-03-24T23:53:42.400Z,12.52
2023-03-24T23:56:11.224Z,9.63
2023-03-24T23:58:40.125Z,6.30
